createdAt,value
2017-07-20T00:00:33.649Z,65.80
2017-07-20T00:03:01.199Z,66.20
2017-07-20T00:05:28.701Z,65.90
2017-07-20T00:07:56.286Z,65.90
2017-07-20T00:10:23.822Z,66.10
2017-07-20T00:12:51.376Z,65.80
2017-07-20T00:15:18.911Z,65.40
2017-07-20T00:17:46.447Z,65.80
2017-07-20T00:20:14.748Z,66.80
2017-07-20T00:22:42.284Z,65.90
2017-07-20T00:25:09.820Z,65.80
2017-07-20T00:27:37.358Z,65.90
2017-07-20T00:30:04.895Z,65.40
2017-07-20T00:32:32.477Z,64.70
2017-07-20T00:34:59.986Z,64.80
2017-07-20T00:37:28.271Z,65.00
2017-07-20T00:39:55.857Z,65.50
2017-07-20T00:42:23.384Z,65.20
2017-07-20T00:44:50.949Z,65.70
2017-07-20T00:47:19.257Z,66.00
2017-07-20T00:49:46.790Z,66.00
2017-07-20T00:52:15.076Z,66.60
2017-07-20T00:54:42.661Z,66.50
2017-07-20T00:57:10.202Z,66.80
2017-07-20T00:59:37.783Z,66.40
2017-07-20T01:02:05.286Z,66.50
2017-07-20T01:04:32.850Z,65.90
2017-07-20T01:07:00.371Z,65.80
2017-07-20T01:09:27.899Z,66.40
2017-07-20T01:11:55.425Z,66.40
2017-07-20T01:14:22.995Z,66.10
2017-07-20T01:16:50.530Z,65.60
2017-07-20T01:19:18.077Z,65.00
2017-07-20T01:21:45.575Z,65.30
2017-07-20T01:24:13.134Z,66.00
2017-07-20T01:26:41.420Z,66.70
2017-07-20T01:29:08.956Z,66.10
2017-07-20T01:31:36.485Z,65.20
2017-07-20T01:34:04.072Z,65.40
2017-07-20T01:36:31.594Z,65.40
2017-07-20T01:38:59.155Z,65.90
2017-07-20T01:41:26.656Z,65.50
2017-07-20T01:43:54.198Z,65.40
2017-07-20T01:46:21.714Z,64.90
2017-07-20T01:48:49.298Z,64.80
2017-07-20T01:51:16.826Z,65.10
2017-07-20T01:53:45.130Z,65.80
2017-07-20T01:56:12.666Z,65.80
2017-07-20T01:58:40.221Z,65.70
2017-07-20T02:01:07.725Z,65.70
2017-07-20T02:03:35.261Z,66.70
2017-07-20T02:06:02.774Z,65.70
2017-07-20T02:08:30.316Z,65.70
2017-07-20T02:10:57.834Z,65.80
2017-07-20T02:13:25.364Z,66.70
2017-07-20T02:15:53.666Z,65.80
2017-07-20T02:18:21.199Z,65.60
2017-07-20T02:20:49.486Z,65.20
2017-07-20T02:23:17.062Z,65.80
2017-07-20T02:25:44.571Z,65.40
2017-07-20T02:28:12.137Z,65.90
2017-07-20T02:30:39.699Z,65.50
2017-07-20T02:33:07.223Z,65.90
2017-07-20T02:35:34.761Z,64.70
2017-07-20T02:38:02.283Z,65.50
2017-07-20T02:40:29.820Z,65.00
2017-07-20T02:42:57.375Z,65.40
2017-07-20T02:45:24.949Z,65.50
2017-07-20T02:47:52.501Z,65.50
2017-07-20T02:50:20.075Z,64.90
2017-07-20T02:52:47.637Z,65.00
2017-07-20T02:55:15.265Z,65.60
2017-07-20T02:57:42.794Z,66.30
2017-07-20T03:00:10.358Z,66.30
2017-07-20T03:02:37.890Z,66.00
2017-07-20T03:05:05.420Z,65.90
2017-07-20T03:07:32.927Z,66.60
2017-07-20T03:10:00.486Z,66.30
2017-07-20T03:12:27.999Z,66.10
2017-07-20T03:14:55.559Z,66.30
2017-07-20T03:17:23.096Z,66.20
2017-07-20T03:19:50.636Z,65.90
2017-07-20T03:22:30.337Z,66.70
2017-07-20T03:24:57.884Z,66.40
2017-07-20T03:27:25.398Z,66.50
2017-07-20T03:29:52.952Z,66.30
2017-07-20T03:32:20.487Z,66.10
2017-07-20T03:34:48.015Z,66.40
2017-07-20T03:37:15.571Z,66.20
2017-07-20T03:39:43.129Z,66.30
2017-07-20T03:42:10.669Z,66.20
2017-07-20T03:44:38.218Z,66.20
2017-07-20T03:47:05.756Z,65.30
2017-07-20T03:49:34.061Z,66.50
2017-07-20T03:52:01.592Z,65.40
2017-07-20T03:54:29.919Z,65.20
2017-07-20T03:56:57.438Z,66.00
2017-07-20T03:59:25.004Z,64.90
2017-07-20T04:01:52.539Z,65.00
2017-07-20T04:04:20.101Z,65.50
2017-07-20T04:06:47.618Z,64.90
2017-07-20T04:09:15.155Z,65.90
2017-07-20T04:11:42.664Z,65.30
2017-07-20T04:14:10.222Z,65.50
2017-07-20T04:16:37.742Z,65.70
2017-07-20T04:19:05.267Z,66.10
2017-07-20T04:21:32.785Z,65.90
2017-07-20T04:24:00.305Z,65.50
2017-07-20T04:26:27.863Z,65.90
2017-07-20T04:28:55.430Z,65.30
2017-07-20T04:31:22.995Z,66.20
2017-07-20T04:33:50.494Z,67.20
2017-07-20T04:36:18.094Z,67.70
2017-07-20T04:38:45.615Z,69.40
2017-07-20T04:41:13.178Z,68.50
2017-07-20T04:43:40.694Z,68.30
2017-07-20T04:46:08.222Z,67.80
2017-07-20T04:48:36.534Z,68.50
2017-07-20T04:51:04.090Z,68.40
2017-07-20T04:53:31.647Z,68.70
2017-07-20T04:55:59.213Z,69.50
2017-07-20T04:58:26.719Z,71.80
2017-07-20T05:00:54.238Z,71.10
2017-07-20T05:03:21.772Z,71.70
2017-07-20T05:05:50.079Z,68.80
2017-07-20T05:08:17.583Z,68.80
2017-07-20T05:10:45.137Z,70.10
2017-07-20T05:13:12.648Z,70.80
2017-07-20T05:15:40.196Z,70.90
2017-07-20T05:18:07.734Z,70.70
2017-07-20T05:20:36.047Z,71.70
2017-07-20T05:23:03.567Z,72.00
2017-07-20T05:25:31.876Z,69.40
2017-07-20T05:27:59.431Z,69.40
2017-07-20T05:30:26.963Z,69.00
2017-07-20T05:32:54.501Z,68.80
2017-07-20T05:35:22.062Z,70.90
2017-07-20T05:37:49.609Z,72.20
2017-07-20T05:40:17.132Z,73.00
2017-07-20T05:42:44.701Z,72.30
2017-07-20T05:45:12.256Z,70.90
2017-07-20T05:47:39.818Z,71.80
2017-07-20T05:50:07.370Z,72.20
2017-07-20T05:52:34.904Z,72.00
2017-07-20T05:55:03.223Z,71.60
2017-07-20T05:57:30.734Z,70.80
2017-07-20T05:59:58.303Z,72.10
2017-07-20T06:02:26.598Z,71.30
2017-07-20T06:04:54.122Z,70.40
2017-07-20T06:07:21.669Z,70.50
2017-07-20T06:09:49.183Z,70.20
2017-07-20T06:12:16.742Z,69.20
2017-07-20T06:14:44.247Z,69.30
2017-07-20T06:17:11.812Z,68.50
2017-07-20T06:19:39.351Z,68.20
2017-07-20T06:22:06.936Z,69.00
2017-07-20T06:24:34.486Z,67.70
2017-07-20T06:27:02.055Z,65.70
2017-07-20T06:29:29.577Z,67.10
2017-07-20T06:31:57.099Z,66.50
2017-07-20T06:34:25.446Z,64.80
2017-07-20T06:36:53.004Z,64.80
2017-07-20T06:39:20.568Z,64.20
2017-07-20T06:41:48.090Z,65.10
2017-07-20T06:44:15.629Z,65.70
2017-07-20T06:46:43.202Z,65.80
2017-07-20T06:49:10.755Z,65.10
2017-07-20T06:51:38.342Z,61.40
2017-07-20T06:54:05.886Z,62.80
2017-07-20T06:56:33.492Z,64.20
2017-07-20T06:59:00.990Z,62.80
2017-07-20T07:01:28.535Z,62.40
2017-07-20T07:03:56.806Z,64.30
2017-07-20T07:06:24.357Z,64.40
2017-07-20T07:08:51.862Z,62.10
2017-07-20T07:11:19.438Z,63.60
2017-07-20T07:13:47.023Z,62.10
2017-07-20T07:16:14.590Z,61.60
2017-07-20T07:18:42.179Z,61.10
2017-07-20T07:21:09.762Z,59.80
2017-07-20T07:23:37.260Z,62.70
2017-07-20T07:26:04.795Z,63.80
2017-07-20T07:28:32.318Z,65.00
2017-07-20T07:30:59.877Z,66.30
2017-07-20T07:33:28.154Z,68.80
2017-07-20T07:35:55.711Z,67.90
2017-07-20T07:38:23.276Z,67.90
2017-07-20T07:40:51.568Z,68.80
2017-07-20T07:43:19.106Z,68.60
2017-07-20T07:45:46.705Z,68.00
2017-07-20T07:48:14.243Z,69.20
2017-07-20T07:50:42.523Z,69.50
2017-07-20T07:53:10.081Z,69.40
2017-07-20T07:55:37.585Z,69.80
2017-07-20T07:58:05.143Z,68.00
2017-07-20T08:00:32.699Z,67.90
2017-07-20T08:03:00.233Z,67.40
2017-07-20T08:05:27.783Z,69.30
2017-07-20T08:07:55.487Z,68.20
2017-07-20T08:10:23.020Z,66.50
2017-07-20T08:12:50.577Z,67.00
2017-07-20T08:15:18.107Z,66.10
2017-07-20T08:17:46.413Z,66.90
2017-07-20T08:20:13.926Z,66.90
2017-07-20T08:22:41.474Z,66.50
2017-07-20T08:25:08.993Z,66.40
2017-07-20T08:27:36.551Z,68.50
2017-07-20T08:30:04.055Z,68.30
2017-07-20T08:32:31.570Z,67.90
2017-07-20T08:34:59.102Z,68.20
2017-07-20T08:37:26.648Z,67.50
2017-07-20T08:39:54.196Z,68.10
2017-07-20T08:42:21.755Z,70.50
2017-07-20T08:44:49.288Z,69.70
2017-07-20T08:47:16.863Z,68.90
2017-07-20T08:49:44.397Z,67.50
2017-07-20T08:52:11.931Z,67.80
2017-07-20T08:54:39.457Z,66.30
2017-07-20T08:57:06.986Z,66.00
2017-07-20T08:59:34.501Z,65.40
2017-07-20T09:02:02.072Z,64.50
2017-07-20T09:04:29.582Z,66.60
2017-07-20T09:06:57.130Z,65.30
2017-07-20T09:09:24.678Z,62.20
2017-07-20T09:11:52.239Z,63.90
2017-07-20T09:14:19.823Z,63.70
2017-07-20T09:16:47.381Z,61.80
2017-07-20T09:19:14.894Z,59.90
2017-07-20T09:21:42.435Z,59.30
2017-07-20T09:24:10.718Z,61.40
2017-07-20T09:26:39.127Z,60.60
2017-07-20T09:29:06.663Z,60.40
2017-07-20T09:31:34.202Z,58.60
2017-07-20T09:34:01.751Z,60.20
2017-07-20T09:36:29.326Z,59.10
2017-07-20T09:38:56.849Z,59.50
2017-07-20T09:41:24.378Z,60.00
2017-07-20T09:43:51.932Z,57.60
2017-07-20T09:46:19.442Z,57.70
2017-07-20T09:48:46.993Z,59.00
2017-07-20T09:51:14.529Z,59.30
2017-07-20T09:53:42.134Z,59.10
2017-07-20T09:56:09.684Z,59.80
2017-07-20T09:58:37.262Z,59.40
2017-07-20T10:01:04.794Z,59.30
2017-07-20T10:03:32.351Z,58.50
2017-07-20T10:05:59.891Z,59.20
2017-07-20T10:08:27.426Z,57.90
2017-07-20T10:10:55.708Z,57.10
2017-07-20T10:13:23.254Z,57.10
2017-07-20T10:15:51.542Z,59.30
2017-07-20T10:18:19.114Z,59.30
2017-07-20T10:20:46.666Z,58.50
2017-07-20T10:23:14.192Z,57.80
2017-07-20T10:25:41.712Z,57.80
2017-07-20T10:28:09.260Z,57.80
2017-07-20T10:30:36.822Z,58.50
2017-07-20T10:33:04.389Z,57.80
2017-07-20T10:35:31.923Z,57.80
2017-07-20T10:37:59.477Z,57.90
2017-07-20T10:40:26.989Z,58.50
2017-07-20T10:42:54.546Z,57.50
2017-07-20T10:45:22.099Z,57.40
2017-07-20T10:47:49.674Z,56.70
2017-07-20T10:50:17.180Z,56.20
2017-07-20T10:52:44.731Z,57.10
2017-07-20T10:55:13.009Z,59.00
2017-07-20T10:57:41.298Z,58.60
2017-07-20T11:00:08.810Z,58.60
2017-07-20T11:02:36.346Z,58.30
2017-07-20T11:05:03.873Z,57.80
2017-07-20T11:07:31.428Z,57.10
2017-07-20T11:09:59.716Z,55.60
2017-07-20T11:12:27.279Z,55.50
2017-07-20T11:14:54.822Z,54.40
2017-07-20T11:17:22.358Z,55.60
2017-07-20T11:19:49.889Z,56.30
2017-07-20T11:22:17.450Z,55.90
2017-07-20T11:24:44.954Z,56.20
2017-07-20T11:27:13.232Z,55.30
2017-07-20T11:29:40.818Z,55.30
2017-07-20T11:32:08.318Z,54.50
2017-07-20T11:34:35.866Z,54.50
2017-07-20T11:37:03.403Z,53.90
2017-07-20T11:39:31.004Z,54.00
2017-07-20T11:41:58.506Z,53.10
2017-07-20T11:44:26.026Z,53.00
2017-07-20T11:46:53.529Z,52.20
2017-07-20T11:49:21.049Z,52.80
2017-07-20T11:51:48.558Z,51.60
2017-07-20T11:54:16.106Z,50.90
2017-07-20T11:56:43.625Z,51.30
2017-07-20T11:59:11.178Z,52.60
2017-07-20T12:01:38.690Z,53.00
2017-07-20T12:04:06.210Z,52.10
2017-07-20T12:06:36.066Z,50.90
2017-07-20T12:09:04.452Z,48.10
2017-07-20T12:11:31.998Z,47.40
2017-07-20T12:13:59.540Z,48.90
2017-07-20T12:16:27.894Z,48.00
2017-07-20T12:18:55.458Z,48.00
2017-07-20T12:21:23.805Z,49.40
2017-07-20T12:23:51.321Z,49.40
2017-07-20T12:26:19.600Z,51.90
2017-07-20T12:28:47.878Z,54.40
2017-07-20T12:31:15.409Z,54.40
2017-07-20T12:33:42.933Z,54.30
2017-07-20T12:36:10.431Z,53.60
2017-07-20T12:38:37.955Z,53.70
2017-07-20T12:41:06.327Z,54.80
2017-07-20T12:43:33.866Z,55.70
2017-07-20T12:46:01.398Z,53.90
2017-07-20T12:50:53.796Z,55.20
2017-07-20T12:53:21.564Z,51.50
2017-07-20T12:55:49.346Z,49.00
2017-07-20T12:58:18.119Z,47.80
2017-07-20T13:00:45.694Z,46.60
2017-07-20T13:03:13.254Z,44.20
2017-07-20T13:05:40.795Z,43.60
2017-07-20T13:08:08.331Z,42.60
2017-07-20T13:10:35.869Z,40.30
2017-07-20T13:13:04.149Z,41.50
2017-07-20T13:15:32.473Z,37.60
2017-07-20T13:17:59.989Z,37.50
2017-07-20T13:20:27.550Z,38.80
2017-07-20T13:22:55.838Z,37.40
2017-07-20T13:25:24.125Z,35.70
2017-07-20T13:27:51.690Z,35.60
2017-07-20T13:30:19.211Z,36.00
2017-07-20T13:32:46.894Z,31.30
2017-07-20T13:35:15.219Z,34.50
2017-07-20T13:37:43.530Z,34.40
2017-07-20T13:40:11.578Z,33.60
2017-07-20T13:42:40.321Z,32.00
2017-07-20T13:45:07.886Z,32.20
2017-07-20T13:47:35.422Z,32.30
2017-07-20T13:50:03.758Z,31.30
2017-07-20T13:52:31.299Z,31.30
2017-07-20T13:54:59.026Z,30.40
2017-07-20T13:57:26.724Z,30.30
2017-07-20T13:59:54.275Z,32.10
2017-07-20T14:02:21.788Z,31.70
2017-07-20T14:04:49.350Z,31.40
2017-07-20T14:07:16.871Z,32.10
2017-07-20T14:09:44.394Z,33.70
2017-07-20T14:12:12.676Z,34.70
2017-07-20T14:14:41.038Z,35.10
2017-07-20T14:17:11.322Z,35.30
2017-07-20T14:19:39.492Z,35.20
2017-07-20T14:22:08.280Z,34.30
2017-07-20T14:24:35.811Z,33.20
2017-07-20T14:27:03.328Z,32.80
2017-07-20T14:29:30.912Z,31.70
2017-07-20T14:31:59.025Z,32.40
2017-07-20T14:34:26.567Z,33.30
2017-07-20T14:36:54.102Z,31.30
2017-07-20T14:39:22.441Z,29.80
2017-07-20T14:41:49.986Z,29.70
2017-07-20T14:44:17.521Z,29.90
2017-07-20T14:46:45.054Z,31.20
2017-07-20T14:49:13.336Z,30.50
2017-07-20T14:51:40.892Z,30.40
2017-07-20T14:54:09.196Z,34.20
2017-07-20T14:56:36.738Z,33.70
2017-07-20T14:59:05.043Z,33.50
2017-07-20T15:01:32.608Z,33.50
2017-07-20T15:04:00.162Z,33.80
2017-07-20T15:06:27.732Z,33.00
2017-07-20T15:08:55.266Z,33.80
2017-07-20T15:11:22.810Z,32.90
2017-07-20T15:13:52.795Z,33.20
2017-07-20T15:16:29.062Z,33.20
2017-07-20T15:19:04.764Z,33.70
2017-07-20T15:21:32.298Z,33.90
2017-07-20T15:24:00.595Z,32.60
2017-07-20T15:26:28.127Z,32.50
2017-07-20T15:28:56.406Z,33.00
2017-07-20T15:31:24.718Z,33.60
2017-07-20T15:33:52.268Z,32.90
2017-07-20T15:36:19.808Z,33.70
2017-07-20T15:38:48.069Z,33.10
2017-07-20T15:41:15.691Z,33.00
2017-07-20T15:43:43.191Z,32.90
2017-07-20T15:46:10.714Z,33.30
2017-07-20T15:48:38.246Z,32.60
2017-07-20T15:51:05.792Z,33.60
2017-07-20T15:53:34.072Z,32.70
2017-07-20T15:56:02.358Z,33.70
2017-07-20T15:58:29.882Z,33.60
2017-07-20T16:00:57.436Z,33.50
2017-07-20T16:03:24.979Z,35.10
2017-07-20T16:05:52.538Z,34.40
2017-07-20T16:08:20.054Z,34.60
2017-07-20T16:10:47.586Z,35.20
2017-07-20T16:13:15.859Z,34.30
2017-07-20T16:18:18.191Z,34.60
2017-07-20T16:20:45.714Z,34.60
2017-07-20T16:23:13.257Z,34.50
2017-07-20T16:25:40.842Z,35.80
2017-07-20T16:28:08.370Z,35.10
2017-07-20T16:30:35.907Z,33.80
2017-07-20T16:33:03.660Z,35.60
2017-07-20T16:35:31.162Z,35.90
2017-07-20T16:37:58.710Z,35.80
2017-07-20T16:40:26.238Z,36.40
2017-07-20T16:42:53.771Z,36.00
2017-07-20T16:45:21.329Z,36.70
2017-07-20T16:47:49.658Z,37.30
2017-07-20T16:50:17.171Z,37.30
2017-07-20T16:52:45.495Z,38.20
2017-07-20T16:55:13.014Z,37.50
2017-07-20T16:57:40.601Z,37.70
2017-07-20T17:00:08.169Z,37.60
2017-07-20T17:02:35.703Z,36.60
2017-07-20T17:05:03.241Z,37.30
2017-07-20T17:07:30.821Z,37.50
2017-07-20T17:09:58.346Z,36.90
2017-07-20T17:12:25.887Z,36.70
2017-07-20T17:14:53.406Z,37.30
2017-07-20T17:17:20.954Z,36.90
2017-07-20T17:19:48.464Z,37.20
2017-07-20T17:22:15.997Z,36.90
2017-07-20T17:24:43.583Z,37.70
2017-07-20T17:27:11.148Z,37.30
2017-07-20T17:29:38.686Z,37.50
2017-07-20T17:32:06.250Z,39.20
2017-07-20T17:34:33.786Z,37.80
2017-07-20T17:37:01.366Z,37.20
2017-07-20T17:39:28.889Z,37.30
2017-07-20T17:41:57.198Z,37.10
2017-07-20T17:44:24.801Z,37.00
2017-07-20T17:46:52.370Z,37.00
2017-07-20T17:49:19.892Z,37.20
2017-07-20T17:51:47.413Z,37.40
2017-07-20T17:54:14.978Z,37.00
2017-07-20T17:56:42.538Z,37.90
2017-07-20T17:59:10.105Z,38.00
2017-07-20T18:01:37.639Z,38.00
2017-07-20T18:04:05.911Z,39.70
2017-07-20T18:06:33.471Z,39.70
2017-07-20T18:09:01.761Z,38.50
2017-07-20T18:11:29.318Z,38.50
2017-07-20T18:16:36.539Z,38.60
2017-07-20T18:19:04.059Z,39.60
2017-07-20T18:21:31.604Z,40.10
2017-07-20T18:23:59.163Z,39.80
2017-07-20T18:26:26.675Z,39.80
2017-07-20T18:28:54.230Z,40.00
2017-07-20T18:31:21.758Z,40.70
2017-07-20T18:33:49.289Z,40.40
2017-07-20T18:36:16.827Z,40.10
2017-07-20T18:38:44.370Z,40.00
2017-07-20T18:41:11.904Z,41.20
2017-07-20T18:43:40.196Z,41.10
2017-07-20T18:46:08.507Z,40.10
2017-07-20T18:48:36.054Z,40.10
2017-07-20T18:51:03.587Z,40.60
2017-07-20T18:53:31.143Z,41.10
2017-07-20T18:55:59.442Z,41.10
2017-07-20T18:58:27.002Z,41.10
2017-07-20T19:00:54.522Z,42.80
2017-07-20T19:03:22.089Z,47.20
2017-07-20T19:05:49.599Z,49.90
2017-07-20T19:08:17.136Z,51.90
2017-07-20T19:10:44.666Z,54.40
2017-07-20T19:13:12.199Z,55.30
2017-07-20T19:15:39.786Z,56.50
2017-07-20T19:18:07.320Z,57.20
2017-07-20T19:20:34.847Z,57.10
2017-07-20T19:23:02.376Z,56.20
2017-07-20T19:25:30.648Z,56.50
2017-07-20T19:27:58.973Z,56.50
2017-07-20T19:30:26.485Z,56.50
2017-07-20T19:32:54.047Z,56.00
2017-07-20T19:35:22.332Z,56.10
2017-07-20T19:37:49.879Z,56.10
2017-07-20T19:40:17.398Z,56.20
2017-07-20T19:42:44.954Z,55.90
2017-07-20T19:45:12.541Z,55.00
2017-07-20T19:47:40.114Z,55.60
2017-07-20T19:50:07.645Z,55.20
2017-07-20T19:52:35.207Z,54.00
2017-07-20T19:55:02.723Z,53.90
2017-07-20T19:57:30.256Z,53.60
2017-07-20T19:59:57.839Z,52.30
2017-07-20T20:02:25.344Z,53.70
2017-07-20T20:04:52.911Z,53.30
2017-07-20T20:07:20.457Z,53.40
2017-07-20T20:09:47.986Z,52.10
2017-07-20T20:12:15.556Z,53.00
2017-07-20T20:14:43.072Z,51.90
2017-07-20T20:17:10.618Z,51.40
2017-07-20T20:19:38.164Z,51.90
2017-07-20T20:22:05.700Z,53.60
2017-07-20T20:24:33.246Z,51.70
2017-07-20T20:27:00.755Z,51.50
2017-07-20T20:29:28.306Z,51.30
2017-07-20T20:31:55.827Z,52.90
2017-07-20T20:34:23.377Z,52.50
2017-07-20T20:36:50.922Z,51.20
2017-07-20T20:39:18.466Z,52.40
2017-07-20T20:41:46.026Z,51.50
2017-07-20T20:44:13.554Z,50.90
2017-07-20T20:46:41.106Z,50.90
2017-07-20T20:49:08.662Z,50.30
2017-07-20T20:51:36.164Z,50.70
2017-07-20T20:54:03.690Z,50.60
2017-07-20T20:56:31.244Z,50.20
2017-07-20T20:58:58.777Z,51.00
2017-07-20T21:01:26.314Z,51.40
2017-07-20T21:03:54.635Z,51.60
2017-07-20T21:06:22.146Z,51.60
2017-07-20T21:08:50.459Z,51.20
2017-07-20T21:11:17.978Z,51.30
2017-07-20T21:13:45.506Z,50.90
2017-07-20T21:16:13.066Z,51.10
2017-07-20T21:18:40.642Z,51.80
2017-07-20T21:21:08.187Z,51.30
2017-07-20T21:23:35.723Z,50.40
2017-07-20T21:26:03.263Z,51.60
2017-07-20T21:28:30.808Z,51.20
2017-07-20T21:30:58.309Z,50.70
2017-07-20T21:33:25.858Z,51.40
2017-07-20T21:35:53.399Z,51.90
2017-07-20T21:38:20.923Z,52.10
2017-07-20T21:40:48.429Z,51.70
2017-07-20T21:43:15.974Z,52.60
2017-07-20T21:45:43.473Z,51.90
2017-07-20T21:48:11.009Z,52.30
2017-07-20T21:50:38.561Z,53.00
2017-07-20T21:53:06.090Z,52.60
2017-07-20T21:55:33.638Z,51.70
2017-07-20T21:58:01.198Z,53.40
2017-07-20T22:00:28.766Z,54.30
2017-07-20T22:02:56.271Z,55.00
2017-07-20T22:05:23.805Z,55.30
2017-07-20T22:07:52.099Z,55.90
2017-07-20T22:10:19.688Z,55.90
2017-07-20T22:12:47.183Z,56.40
2017-07-20T22:15:14.759Z,56.70
2017-07-20T22:17:42.282Z,56.90
2017-07-20T22:20:09.805Z,56.90
2017-07-20T22:22:37.373Z,56.50
2017-07-20T22:25:04.914Z,57.00
2017-07-20T22:27:32.451Z,57.00
2017-07-20T22:29:59.966Z,56.40
2017-07-20T22:32:27.517Z,56.10
2017-07-20T22:34:55.065Z,56.60
2017-07-20T22:37:22.639Z,56.10
2017-07-20T22:39:50.199Z,57.00
2017-07-20T22:42:17.734Z,56.60
2017-07-20T22:44:45.294Z,56.40
2017-07-20T22:47:12.812Z,56.60
2017-07-20T22:49:40.346Z,56.30
2017-07-20T22:52:07.880Z,55.70
2017-07-20T22:54:35.407Z,56.60
2017-07-20T22:57:02.962Z,56.20
2017-07-20T22:59:31.288Z,56.40
2017-07-20T23:01:58.842Z,56.40
2017-07-20T23:04:26.406Z,56.30
2017-07-20T23:06:53.926Z,55.90
2017-07-20T23:09:21.455Z,56.10
2017-07-20T23:11:48.984Z,55.90
2017-07-20T23:14:16.513Z,56.00
2017-07-20T23:16:44.794Z,55.60
2017-07-20T23:19:13.125Z,55.10
2017-07-20T23:21:40.666Z,55.10
2017-07-20T23:24:08.254Z,54.90
2017-07-20T23:26:35.754Z,55.20
2017-07-20T23:29:03.330Z,55.10
2017-07-20T23:31:30.869Z,55.30
2017-07-20T23:33:59.162Z,54.40
2017-07-20T23:36:26.722Z,54.30
2017-07-20T23:38:54.242Z,54.30
2017-07-20T23:41:21.775Z,54.70
2017-07-20T23:43:49.306Z,54.40
2017-07-20T23:46:16.866Z,54.50
2017-07-20T23:48:44.447Z,54.50
2017-07-20T23:51:12.022Z,54.30
2017-07-20T23:53:39.565Z,54.30
2017-07-20T23:56:07.154Z,54.40
2017-07-20T23:58:34.680Z,53.50
